Terminal Aerodrome Forecast
Issued by NWS

Home | Current Version | Previous Version | Text Only | Print | Product List | Glossary On
Versions: 1 2 3 4 5 6 7 8 9 10 11 12 13 14 15 16 17 18 19 20 21 22 23
557
FTUS43 KGRR 252326
TAFAZO
TAF
KAZO 252326Z 2600/2624 13005KT P6SM SCT120 SCT250
     FM260300 17012KT P6SM -SHRA BKN080
      TEMPO 2603/2606 4SM SHRA OVC025
     FM260600 27012G24KT P6SM VCSH OVC035
     FM260900 27010G20KT 4SM -SHRA BR OVC025
     FM261200 27015G25KT P6SM BKN050
     FM261500 26018G30KT P6SM SCT050
     FM261800 26020G32KT P6SM BKN035=

USA.gov is the U.S. government's official web portal to all federal, state and local government web resources and services.